Details From LGKO - Kos
To LGAV - Athens Intl Airport Elefterios Venizel
Flight Number -
Tags Routegen Generated
Created
Modified
Stats Distance 171 nm / 316 km
Max Altitude 22,000 ft / 6,706 m
Waypoints 11
Social Downloads 0
Likes 0
Share VATSIM

Download

Looking for another format? Having issues loading an existing format? Contact us
Advertisement - Login to hide

Notes

Departing runway 32 LGKO. Arriving runway 3 LGAV. Advanced Generation Settings: Turn accuracy: 20 Altitude: 22000ft Smoothed angles: True Runway changes allowed: True Calculation order: Departure --> Arrival --> Intermediates Multipass intermediates: True

Route

LGKO +36.87_+027.04 +36.90_+026.98 +36.92_+026.91 +37.33_+025.95 +38.02_+024.30 +38.05_+024.23 +38.06_+024.16 +38.04_+024.09 +38.01_+024.03 LGAV

ID Type Via Altitude Latitude Longitude Leg Dist Tot Dist Heading (true) Name
O LGKO APT - 0 ft / 0 m 36.80364˚ 27.08364˚ - 0 nm - -
+36.87_+027.04 LATLON - 210 ft / 64 m 36.86520˚ 27.03611˚ 4 nm 4 nm 328° / 328° -
+36.90_+026.98 LATLON - 680 ft / 207 m 36.90106˚ 26.97929˚ 3 nm 7 nm 308° / 308° -
+36.92_+026.91 LATLON - 22,000 ft / 6,706 m 36.91922˚ 26.91054˚ 3 nm 11 nm 288° / 288° -
+37.33_+025.95 LATLON - 22,000 ft / 6,706 m 37.33301˚ 25.95246˚ 52 nm 63 nm 299° / 298° -
+38.02_+024.30 LATLON - 3,570 ft / 1,088 m 38.02340˚ 24.29672˚ 88 nm 152 nm 298° / 297° -
+38.05_+024.23 LATLON - 2,380 ft / 725 m 38.04929˚ 24.23098˚ 3 nm 155 nm 297° / 297° -
+38.06_+024.16 LATLON - 1,410 ft / 430 m 38.05591˚ 24.15794˚ 3 nm 159 nm 277° / 277° -
+38.04_+024.09 LATLON - 680 ft / 207 m 38.04245˚ 24.08644˚ 3 nm 162 nm 257° / 257° -
+38.01_+024.03 LATLON - 210 ft / 64 m 38.01055˚ 24.02511˚ 3 nm 166 nm 237° / 237° -
O LGAV APT - 0 ft / 0 m 37.95242˚ 23.97042˚ 4 nm 170 nm 217° / 217° -

Altitude Profile

Advertisement - Login to hide

Weather


0- 5 10 15 20 25 30 35+ Temperature / ° C

Clouds and Precipitation
Forecast for 2017-12-13 18:00 UTC. Updated 2 hours ago

Ground ~20,000 ft ~40,000 ft Winds

LGKO

Details ICAO LGKO (KGS)
Name KOS
Region Greece
Timezone Europe/Athens (UTC+2.0)
Stats Elevation 412 ft / 126 m (AMSL)
Location 36.794403° 27.090764°
Runways 1
Magnetic Variation 4.723° E

METAR

LGKO 131820Z 30005KT 9999 FEW016 14/11 Q1020

Decode

TAF

TAF LGKO 131700Z 1318/1418 32008KT 9999 FEW016 SCT025 BECMG 1322/1324 26010KT

Decode

Departure Runways

ID Width Length Bearing (true) Bearing (mag) Surface Threshold Offset Overrun Length
14 148 ft / 45 m 7,923 ft / 2,415 m 148.29° 143.57° Asphalt 0 ft / 0 m 240 ft / 73 m
32 148 ft / 45 m 7,923 ft / 2,415 m 328.30° 323.58° Asphalt 0 ft / 0 m 205 ft / 62 m

LGAV

Details ICAO LGAV (ATH)
Name Athens Intl Airport Elefterios Venizel
Region Greece
Timezone Europe/Athens (UTC+2.0)
Stats Elevation 308 ft / 94 m (AMSL)
Location 37.936357° 23.944470°
Runways 2
Magnetic Variation 4.484° E

METAR

LGAV 131820Z 08007KT 040V120 CAVOK 16/06 Q1019 NOSIG

Decode

TAF

TAF LGAV 131700Z 1318/1418 25008KT 9999 FEW025= TAF LGEL 131700Z 1318/1418 26010KT 9999 FEW025 BECMG 1319/1321 VRB05KT

Decode

Destination Runways

ID Width Length Bearing (true) Bearing (mag) Surface Threshold Offset Overrun Length
03L 148 ft / 45 m 12,474 ft / 3,802 m 36.51° 32.03° Asphalt 984 ft / 300 m 393 ft / 120 m
03R 148 ft / 45 m 13,131 ft / 4,002 m 36.52° 32.04° Asphalt 984 ft / 300 m 393 ft / 120 m
21L 148 ft / 45 m 13,131 ft / 4,002 m 216.54° 212.06° Asphalt 984 ft / 300 m 393 ft / 120 m
21R 148 ft / 45 m 12,474 ft / 3,802 m 216.53° 212.05° Asphalt 984 ft / 300 m 393 ft / 120 m

Approach Navaids

Runway Type Ident Frequency Range Bearing (true) Bearing (mag) Slope Elevation
03L Localiser IATL 110.50 MHz 18 nm / 33 km 36.52° 32.04° - 282 ft / 86 m (AMSL)
03L Glidescope IATL 110.50 MHz 10 nm / 19 km 36.52° 32.03° 3.00° 255 ft / 78 m (AMSL)
03L DME IATL 110.50 MHz 18 nm / 33 km - - - 255 ft / 78 m (AMSL)
03R Localiser IATR 111.10 MHz 18 nm / 33 km 36.97° 32.49° - 302 ft / 92 m (AMSL)
03R Glidescope IATR 111.10 MHz 10 nm / 19 km 36.53° 32.05° 3.00° 271 ft / 83 m (AMSL)
21L Localiser IEVL 111.10 MHz 18 nm / 33 km 216.52° 212.04° - 271 ft / 83 m (AMSL)
21L Glidescope IEVL 111.10 MHz 10 nm / 19 km 216.53° 212.05° 3.00° 302 ft / 92 m (AMSL)
21L DME IEVL 111.10 MHz 18 nm / 33 km - - - 303 ft / 92 m (AMSL)
21R Localiser IEVR 110.50 MHz 18 nm / 33 km 216.50° 212.02° - 255 ft / 78 m (AMSL)
21R Glidescope IEVR 110.50 MHz 10 nm / 19 km 216.52° 212.03° 3.00° 282 ft / 86 m (AMSL)
21R DME IEVR 110.50 MHz 18 nm / 33 km - - - 282 ft / 86 m (AMSL)

Popular Alternatives